Time;durP1;ratioP1;P1;durP2;ratioP2;P2;SDS_P1;SDS_P2;PMS_P1;PMS_P2;Temp;Humidity;BMP_temperature;BMP_pressure;BME280_temperature;BME280_humidity;BME280_pressure;Samples;Min_cycle;Max_cycle;Signal;HPM_P1;HPM_P2
2021/05/21 00:02:08;;;;;;;2.13;1.30;;;;;;;8.58;65.92;95460.81;5016234;28;20210;-82
2021/05/21 00:04:33;;;;;;;1.37;1.20;;;;;;;8.51;66.16;95452.75;5031266;28;20229;-82
2021/05/21 00:06:59;;;;;;;1.70;1.50;;;;;;;8.54;66.19;95439.53;5024957;28;20596;-82
2021/05/21 00:09:24;;;;;;;2.30;1.27;;;;;;;8.46;66.91;95436.81;5016470;28;20205;-82
2021/05/21 00:11:49;;;;;;;1.70;1.17;;;;;;;8.54;66.94;95433.53;5032800;28;20203;-82
2021/05/21 00:14:15;;;;;;;3.00;1.50;;;;;;;8.49;66.64;95428.78;5033533;28;20220;-80
2021/05/21 00:16:40;;;;;;;1.23;1.13;;;;;;;8.43;66.81;95426.75;5035976;28;20179;-81
2021/05/21 00:19:05;;;;;;;1.40;1.30;;;;;;;8.42;66.78;95417.34;5021096;28;20180;-81
2021/05/21 00:21:31;;;;;;;2.37;1.60;;;;;;;8.46;66.86;95416.94;5040123;28;20185;-82
2021/05/21 00:23:56;;;;;;;1.70;1.60;;;;;;;8.49;66.52;95418.44;5040852;28;20188;-82
2021/05/21 00:26:21;;;;;;;1.27;0.90;;;;;;;8.58;66.34;95414.22;5015183;28;20216;-82
2021/05/21 00:28:47;;;;;;;2.30;1.13;;;;;;;8.55;65.96;95410.09;5040959;28;20200;-81
2021/05/21 00:31:12;;;;;;;1.67;1.20;;;;;;;8.59;65.45;95410.66;5023559;28;20750;-81
2021/05/21 00:33:37;;;;;;;0.83;0.83;;;;;;;8.63;65.43;95391.31;5041795;28;20194;-81
2021/05/21 00:36:03;;;;;;;2.70;0.90;;;;;;;8.69;65.26;95373.44;5038989;28;20562;-81
2021/05/21 00:38:28;;;;;;;2.20;0.90;;;;;;;8.60;65.45;95376.06;5033589;28;20193;-81
2021/05/21 00:40:54;;;;;;;1.37;1.10;;;;;;;8.54;65.72;95380.00;5017238;28;20265;-81
2021/05/21 00:43:19;;;;;;;1.23;1.07;;;;;;;8.59;65.50;95390.78;5017340;28;20202;-81
2021/05/21 00:45:44;;;;;;;2.63;1.40;;;;;;;8.61;65.23;95386.25;5033166;28;20202;-81
2021/05/21 00:48:10;;;;;;;1.80;1.17;;;;;;;8.57;65.19;95365.97;5049687;28;20224;-80
2021/05/21 00:50:35;;;;;;;1.40;1.27;;;;;;;8.61;64.89;95344.84;5033638;28;20405;-81
2021/05/21 00:53:02;;;;;;;2.47;1.13;;;;;;;8.55;65.39;95336.81;5017543;28;20236;-81
2021/05/21 00:55:28;;;;;;;0.93;0.90;;;;;;;8.58;65.34;95354.69;5017230;28;20224;-81
2021/05/21 00:57:53;;;;;;;1.57;0.90;;;;;;;8.51;65.58;95365.59;5012760;28;20289;-81
2021/05/21 01:00:19;;;;;;;1.00;0.83;;;;;;;8.51;65.12;95350.06;5016358;28;20178;-81
2021/05/21 01:02:44;;;;;;;1.00;0.80;;;;;;;8.55;64.84;95357.53;5017108;28;20577;-81
2021/05/21 01:05:10;;;;;;;1.07;0.80;;;;;;;8.63;64.17;95361.06;5016631;28;20217;-81
2021/05/21 01:07:35;;;;;;;1.30;1.00;;;;;;;8.60;64.60;95361.34;5015214;28;20197;-81
2021/05/21 01:10:00;;;;;;;3.70;0.97;;;;;;;8.56;64.35;95354.78;5032223;28;20200;-81
2021/05/21 01:12:26;;;;;;;1.03;0.90;;;;;;;8.56;64.55;95348.81;5033352;28;20207;-80
2021/05/21 01:14:54;;;;;;;1.57;0.80;;;;;;;8.58;64.52;95355.50;5016524;28;20186;-80
2021/05/21 01:17:20;;;;;;;1.67;1.00;;;;;;;8.61;64.00;95346.63;5016756;28;20709;-79
2021/05/21 01:19:45;;;;;;;0.83;0.83;;;;;;;8.61;63.86;95347.44;5032564;28;20193;-79
2021/05/21 01:22:12;;;;;;;0.87;0.80;;;;;;;8.77;63.10;95341.69;5016716;28;20199;-81
2021/05/21 01:24:37;;;;;;;1.50;0.90;;;;;;;8.69;63.67;95339.78;5016649;28;20586;-80
2021/05/21 01:27:04;;;;;;;1.93;1.00;;;;;;;8.66;63.35;95337.50;5033388;28;20237;-80
2021/05/21 01:29:30;;;;;;;0.80;0.77;;;;;;;8.67;63.54;95340.91;5027438;28;20241;-80
2021/05/21 01:31:55;;;;;;;0.80;0.80;;;;;;;8.73;62.76;95338.53;5028483;28;20202;-80
2021/05/21 01:34:21;;;;;;;1.27;0.80;;;;;;;8.75;62.85;95333.25;5033157;28;20182;-80
2021/05/21 01:36:47;;;;;;;1.43;0.80;;;;;;;8.74;62.58;95331.59;5032992;28;20174;-80
2021/05/21 01:39:13;;;;;;;1.47;0.90;;;;;;;8.79;62.55;95334.56;5031936;28;20182;-81
2021/05/21 01:41:40;;;;;;;1.80;1.23;;;;;;;8.75;62.76;95326.28;5024474;28;20190;-81
2021/05/21 01:44:07;;;;;;;1.97;1.00;;;;;;;8.74;62.72;95327.22;5016213;28;20181;-81
2021/05/21 01:46:32;;;;;;;2.83;0.87;;;;;;;8.79;62.30;95326.81;5032751;28;20686;-81
2021/05/21 01:48:58;;;;;;;1.27;0.90;;;;;;;8.79;62.32;95326.81;5016529;28;20185;-80
2021/05/21 01:51:23;;;;;;;1.60;0.93;;;;;;;8.83;62.07;95322.97;5015124;28;20202;-80
2021/05/21 01:53:48;;;;;;;1.03;0.80;;;;;;;8.98;61.54;95318.97;5032791;28;20225;-81
2021/05/21 01:56:14;;;;;;;1.47;1.00;;;;;;;8.98;61.47;95318.16;5016389;28;20657;-81
2021/05/21 01:58:39;;;;;;;0.60;0.60;;;;;;;8.89;62.13;95311.25;5016249;28;20517;-81
2021/05/21 02:01:04;;;;;;;1.17;0.80;;;;;;;8.87;61.94;95302.81;5014008;28;20205;-81
2021/05/21 02:03:30;;;;;;;2.37;0.73;;;;;;;8.96;61.68;95304.53;5025611;28;20199;-80
2021/05/21 02:05:59;;;;;;;1.43;0.80;;;;;;;8.98;61.25;95292.25;5032775;28;20213;-81
2021/05/21 02:08:25;;;;;;;0.70;0.70;;;;;;;8.94;61.79;95290.91;5016155;28;20556;-80
2021/05/21 02:10:51;;;;;;;0.83;0.70;;;;;;;8.95;61.74;95288.19;5032425;28;20183;-81
2021/05/21 02:13:17;;;;;;;0.77;0.77;;;;;;;8.85;61.75;95282.22;5023432;28;20218;-81
2021/05/21 02:15:42;;;;;;;2.07;0.90;;;;;;;8.85;62.22;95279.66;5032899;28;20210;-80
2021/05/21 02:18:08;;;;;;;1.27;0.93;;;;;;;8.83;62.43;95273.78;5033683;28;20170;-81
2021/05/21 02:20:33;;;;;;;1.07;0.93;;;;;;;8.71;63.35;95274.94;5032657;28;20217;-80
2021/05/21 02:22:58;;;;;;;1.87;0.90;;;;;;;8.60;63.86;95270.75;5006878;28;20333;-80
2021/05/21 02:25:24;;;;;;;1.07;0.80;;;;;;;8.60;64.04;95275.13;5015632;28;20561;-80
2021/05/21 02:27:51;;;;;;;2.97;1.20;;;;;;;8.44;64.41;95273.13;5032410;28;20600;-80
2021/05/21 02:30:16;;;;;;;1.00;0.87;;;;;;;8.34;65.03;95262.75;5015950;28;20178;-81
2021/05/21 02:32:41;;;;;;;1.70;1.07;;;;;;;8.36;65.24;95255.69;5014077;28;20207;-82
2021/05/21 02:35:08;;;;;;;0.97;0.90;;;;;;;8.24;65.79;95259.41;5023943;28;20584;-79
2021/05/21 02:37:33;;;;;;;1.07;0.80;;;;;;;8.29;65.74;95252.00;5033403;28;20234;-82
2021/05/21 02:39:58;;;;;;;1.20;1.10;;;;;;;8.26;65.73;95246.31;5032966;28;20596;-82
2021/05/21 02:42:24;;;;;;;0.80;0.80;;;;;;;8.20;65.88;95250.28;5014816;28;20213;-81
2021/05/21 02:44:49;;;;;;;2.33;0.87;;;;;;;8.09;66.58;95253.03;5007119;28;20626;-79
2021/05/21 02:47:15;;;;;;;3.50;1.30;;;;;;;7.99;66.72;95247.88;5014125;28;20178;-82
2021/05/21 02:49:40;;;;;;;1.07;0.97;;;;;;;8.05;67.16;95249.91;5031931;28;20178;-81
2021/05/21 02:52:05;;;;;;;1.50;1.20;;;;;;;8.06;66.85;95250.72;5014815;28;20214;-81
2021/05/21 02:54:30;;;;;;;1.20;1.10;;;;;;;8.05;66.88;95242.16;5010064;28;20207;-80
2021/05/21 02:56:56;;;;;;;0.80;0.80;;;;;;;7.90;67.55;95234.00;5027931;28;20205;-79
2021/05/21 02:59:21;;;;;;;2.57;1.03;;;;;;;7.82;67.59;95233.06;5014696;28;20198;-81
2021/05/21 03:01:47;;;;;;;1.37;1.13;;;;;;;7.73;67.94;95232.13;5031672;28;20244;-81
2021/05/21 03:04:12;;;;;;;3.23;1.00;;;;;;;7.74;68.00;95227.78;5031208;28;20205;-79
2021/05/21 03:06:37;;;;;;;1.27;0.97;;;;;;;7.70;68.66;95226.44;5006158;28;20214;-79
2021/05/21 03:09:03;;;;;;;1.63;1.10;;;;;;;7.66;68.21;95218.94;5031531;28;20186;-81
2021/05/21 03:11:29;;;;;;;2.47;1.20;;;;;;;7.67;68.12;95220.56;5014306;28;20189;-82
2021/05/21 03:13:54;;;;;;;1.43;1.10;;;;;;;7.67;68.41;95212.81;5014891;28;20182;-79
2021/05/21 03:16:19;;;;;;;1.37;0.93;;;;;;;7.72;68.30;95193.50;5026930;28;20217;-79
2021/05/21 03:18:44;;;;;;;1.73;1.13;;;;;;;7.69;68.30;95193.78;5026711;28;20222;-80
2021/05/21 03:21:10;;;;;;;2.00;0.93;;;;;;;7.63;68.27;95197.72;5031423;28;20193;-79
2021/05/21 03:23:35;;;;;;;1.53;1.13;;;;;;;7.70;68.38;95195.41;5031434;28;20560;-80
2021/05/21 03:26:00;;;;;;;2.23;1.30;;;;;;;7.55;68.88;95205.34;5029597;28;20198;-80
2021/05/21 03:28:26;;;;;;;2.23;1.07;;;;;;;7.59;68.63;95202.34;5007129;28;20182;-81
2021/05/21 03:30:51;;;;;;;1.43;1.20;;;;;;;7.56;68.93;95187.13;5029255;28;20218;-81
2021/05/21 03:33:17;;;;;;;1.43;1.03;;;;;;;7.54;68.81;95178.69;5022130;28;20289;-80
2021/05/21 03:35:42;;;;;;;2.33;1.20;;;;;;;7.59;68.61;95188.59;5022070;28;20190;-80
2021/05/21 03:38:08;;;;;;;3.63;1.20;;;;;;;7.57;68.71;95190.53;5010025;28;20193;-80
2021/05/21 03:40:35;;;;;;;2.37;1.10;;;;;;;7.57;68.88;95180.19;5030578;28;20661;-80
2021/05/21 03:43:01;;;;;;;1.20;1.10;;;;;;;7.54;68.85;95196.78;5013410;28;20674;-79
2021/05/21 03:45:27;;;;;;;1.67;1.20;;;;;;;7.57;69.09;95187.94;5014465;28;20216;-79
2021/05/21 03:47:52;;;;;;;2.53;1.20;;;;;;;7.60;68.79;95185.91;5013442;28;20190;-80
2021/05/21 03:50:20;;;;;;;2.00;1.10;;;;;;;7.50;68.98;95190.25;5022466;28;20203;-80
2021/05/21 03:52:47;;;;;;;2.17;1.00;;;;;;;7.49;69.27;95186.03;5031019;28;20206;-79
2021/05/21 03:55:13;;;;;;;2.60;1.00;;;;;;;7.42;69.65;95179.81;5017660;28;20174;-80
2021/05/21 03:57:39;;;;;;;1.43;1.10;;;;;;;7.42;70.12;95177.22;5034347;28;20175;-79
2021/05/21 04:00:07;;;;;;;1.40;1.07;;;;;;;7.42;69.55;95169.47;5026046;28;20224;-80
2021/05/21 04:02:33;;;;;;;2.43;1.27;;;;;;;7.59;69.23;95157.59;5033870;28;20221;-79
2021/05/21 04:04:58;;;;;;;1.63;1.10;;;;;;;7.51;69.09;95160.91;5034624;28;20590;-79
2021/05/21 04:07:24;;;;;;;1.37;0.90;;;;;;;7.46;69.54;95157.09;5034958;28;20257;-80
2021/05/21 04:09:49;;;;;;;1.80;1.00;;;;;;;7.47;69.38;95150.97;5012957;28;20664;-81
2021/05/21 04:12:14;;;;;;;1.30;1.20;;;;;;;7.47;69.24;95159.53;5034213;28;20206;-80
2021/05/21 04:14:40;;;;;;;3.20;2.53;;;;;;;7.54;69.41;95149.47;5034578;28;20179;-81
2021/05/21 04:17:05;;;;;;;1.60;1.40;;;;;;;7.55;69.00;95156.25;5034551;28;20183;-81
2021/05/21 04:19:30;;;;;;;2.63;1.10;;;;;;;7.46;69.46;95147.56;5016836;28;20240;-81
2021/05/21 04:21:55;;;;;;;2.30;1.20;;;;;;;7.58;69.56;95151.63;5025549;28;20611;-83
2021/05/21 04:24:21;;;;;;;1.20;1.10;;;;;;;7.60;69.27;95146.34;5017401;28;20186;-80
2021/05/21 04:26:46;;;;;;;1.17;1.07;;;;;;;7.70;69.05;95154.06;5010533;28;20206;-81
2021/05/21 04:29:11;;;;;;;1.30;1.03;;;;;;;7.66;68.76;95148.34;5033852;28;20186;-81
2021/05/21 04:31:37;;;;;;;4.30;1.10;;;;;;;7.81;68.71;95146.13;5048318;28;20190;-81
2021/05/21 04:34:02;;;;;;;0.80;0.80;;;;;;;7.88;68.34;95139.44;5049800;28;20213;-81
2021/05/21 04:36:27;;;;;;;1.03;0.90;;;;;;;7.85;68.19;95142.31;5033385;28;20197;-81
2021/05/21 04:38:53;;;;;;;3.00;1.10;;;;;;;7.90;68.16;95137.53;5016666;28;20190;-80
2021/05/21 04:41:18;;;;;;;1.10;1.00;;;;;;;8.03;67.71;95132.03;5049047;28;20222;-81
2021/05/21 04:43:45;;;;;;;1.93;1.17;;;;;;;8.09;67.22;95140.03;5032638;28;20289;-80
2021/05/21 04:46:11;;;;;;;3.60;1.30;;;;;;;8.29;66.77;95129.63;5017469;28;20217;-80
2021/05/21 04:48:36;;;;;;;4.03;1.37;;;;;;;8.31;66.15;95122.53;5050373;28;20182;-79
2021/05/21 04:51:01;;;;;;;1.90;1.07;;;;;;;8.30;66.58;95116.53;5065486;28;20187;-82
2021/05/21 04:53:27;;;;;;;1.10;1.00;;;;;;;8.31;66.19;95115.59;5016196;28;20207;-81
2021/05/21 04:55:52;;;;;;;1.73;1.00;;;;;;;8.34;66.17;95122.25;5049843;28;20717;-81
2021/05/21 04:58:18;;;;;;;1.83;1.17;;;;;;;8.38;65.47;95129.59;5016480;28;20202;-81
2021/05/21 05:00:44;;;;;;;2.20;1.00;;;;;;;8.42;65.81;95115.44;5049874;28;20244;-80
2021/05/21 05:03:12;;;;;;;4.00;1.10;;;;;;;8.62;65.15;95117.88;5047963;28;20697;-81
2021/05/21 05:05:37;;;;;;;1.10;1.00;;;;;;;8.75;65.09;95114.00;5033492;28;20226;-80
2021/05/21 05:08:03;;;;;;;2.40;1.10;;;;;;;8.76;64.71;95122.56;5033376;28;20186;-81
2021/05/21 05:10:29;;;;;;;0.90;0.90;;;;;;;8.93;64.21;95120.97;5016401;28;20248;-81
2021/05/21 05:12:54;;;;;;;1.20;1.10;;;;;;;9.00;63.67;95111.63;5063146;28;20217;-81
2021/05/21 05:15:20;;;;;;;3.10;1.20;;;;;;;9.22;63.43;95106.00;5016346;28;20175;-81
2021/05/21 05:17:50;;;;;;;2.03;0.80;;;;;;;9.25;63.53;95103.09;5015929;28;20261;-81
2021/05/21 05:20:16;;;;;;;1.20;1.10;;;;;;;9.14;63.75;95110.28;5032410;28;20194;-82
2021/05/21 05:22:42;;;;;;;1.90;1.20;;;;;;;9.10;63.80;95107.19;5016040;28;20569;-81
2021/05/21 05:25:09;;;;;;;1.30;0.93;;;;;;;9.12;63.89;95092.31;5031704;28;20674;-82
2021/05/21 05:27:34;;;;;;;3.20;1.00;;;;;;;9.13;63.94;95083.56;5032705;28;20266;-81
2021/05/21 05:29:59;;;;;;;1.00;0.90;;;;;;;9.25;63.42;95087.53;5032936;28;20260;-82
2021/05/21 05:32:25;;;;;;;1.60;1.03;;;;;;;9.24;63.40;95093.69;5048690;28;20230;-81
2021/05/21 05:34:50;;;;;;;1.17;0.80;;;;;;;9.43;63.06;95086.69;5032291;28;20661;-81
2021/05/21 05:37:15;;;;;;;1.10;0.87;;;;;;;9.50;62.52;95083.34;5065180;28;20182;-81
2021/05/21 05:39:41;;;;;;;1.50;0.90;;;;;;;9.61;62.58;95087.47;5015904;28;20571;-82
2021/05/21 05:42:06;;;;;;;1.20;0.90;;;;;;;9.63;62.72;95078.59;5033436;28;20316;-81
2021/05/21 05:44:31;;;;;;;1.27;1.10;;;;;;;9.71;61.90;95080.38;5030442;28;20471;-81
2021/05/21 05:46:57;;;;;;;1.90;1.17;;;;;;;9.89;62.16;95069.94;5031372;28;20206;-80
2021/05/21 05:49:22;;;;;;;1.23;1.13;;;;;;;10.28;60.80;95066.91;5032001;28;20189;-81
2021/05/21 05:51:47;;;;;;;1.00;0.80;;;;;;;11.72;56.58;95068.94;5031601;28;20211;-82
2021/05/21 05:54:13;;;;;;;1.90;1.13;;;;;;;12.25;55.37;95071.88;5048671;28;20716;-81
2021/05/21 05:56:38;;;;;;;1.13;0.87;;;;;;;12.42;54.07;95063.03;5047017;28;20178;-81
2021/05/21 05:59:03;;;;;;;1.80;1.03;;;;;;;12.59;53.46;95059.34;5032529;28;20190;-81
2021/05/21 06:01:29;;;;;;;1.20;1.07;;;;;;;12.35;55.24;95051.66;5049074;28;20244;-81
2021/05/21 06:03:54;;;;;;;1.20;0.80;;;;;;;12.14;54.86;95055.66;5032316;28;20183;-81
2021/05/21 06:06:19;;;;;;;1.33;0.77;;;;;;;12.43;54.10;95054.22;5030359;28;20206;-81
2021/05/21 06:08:45;;;;;;;1.10;0.77;;;;;;;12.64;53.20;95044.03;5031743;28;20205;-81
2021/05/21 06:11:10;;;;;;;1.47;0.90;;;;;;;12.28;54.61;95041.13;5031640;28;20183;-80
2021/05/21 06:13:35;;;;;;;1.87;0.90;;;;;;;12.01;55.42;95050.16;5031835;28;20212;-81
2021/05/21 06:16:01;;;;;;;1.30;0.80;;;;;;;11.95;56.12;95045.66;5065442;28;20178;-80
2021/05/21 06:18:26;;;;;;;0.70;0.70;;;;;;;11.82;56.43;95045.38;5045610;28;20313;-80
2021/05/21 06:20:51;;;;;;;1.77;0.83;;;;;;;11.71;56.40;95040.50;5064434;28;20185;-81
2021/05/21 06:23:17;;;;;;;1.10;0.90;;;;;;;11.62;56.75;95035.31;5033150;28;20293;-81
2021/05/21 06:28:19;;;;;;;2.23;1.77;;;;;;;11.41;57.86;95040.25;5031633;28;20186;-80
2021/05/21 06:30:44;;;;;;;1.03;0.93;;;;;;;11.46;58.02;95037.13;5025723;28;20193;-80
2021/05/21 06:33:09;;;;;;;1.43;0.87;;;;;;;11.47;57.09;95031.75;5060637;28;20288;-78
2021/05/21 06:35:35;;;;;;;2.13;1.00;;;;;;;11.37;58.19;95036.31;5062456;28;20182;-80
2021/05/21 06:38:00;;;;;;;0.90;0.90;;;;;;;11.50;57.32;95031.44;5061144;28;20654;-79
2021/05/21 06:40:25;;;;;;;2.80;1.27;;;;;;;11.57;57.13;95037.63;5029297;28;20186;-80
2021/05/21 06:42:51;;;;;;;2.27;1.10;;;;;;;11.72;57.79;95029.09;5031075;28;20209;-80
2021/05/21 06:45:16;;;;;;;2.70;0.80;;;;;;;11.63;57.92;95033.50;5030914;28;20630;-79
2021/05/21 06:47:42;;;;;;;1.07;0.93;;;;;;;11.60;57.37;95024.25;5064094;28;20178;-82
2021/05/21 06:50:11;;;;;;;2.17;1.07;;;;;;;11.78;57.78;95011.03;5028988;28;20178;-80
2021/05/21 06:52:36;;;;;;;2.27;0.90;;;;;;;12.01;57.43;95013.75;5030179;28;20229;-80
2021/05/21 06:55:03;;;;;;;2.30;1.10;;;;;;;12.46;55.83;95017.44;5014318;28;20197;-80
2021/05/21 06:57:29;;;;;;;1.97;0.73;;;;;;;12.80;54.80;95005.81;5032945;28;20188;-79
2021/05/21 06:59:54;;;;;;;2.73;1.23;;;;;;;12.77;54.21;95005.19;5062642;28;20182;-80
2021/05/21 07:02:20;;;;;;;1.57;1.00;;;;;;;12.74;55.31;95020.34;5047565;28;20198;-80
2021/05/21 07:04:45;;;;;;;2.53;0.80;;;;;;;13.22;53.60;95029.59;5047054;28;20181;-78
2021/05/21 07:07:11;;;;;;;1.70;0.90;;;;;;;12.91;55.12;95013.25;5030417;28;20634;-80
2021/05/21 07:09:36;;;;;;;1.33;0.80;;;;;;;13.00;55.06;95014.78;5006899;28;20198;-80
2021/05/21 07:12:02;;;;;;;1.10;0.80;;;;;;;12.79;54.93;95025.84;5013261;28;20202;-81
2021/05/21 07:14:27;;;;;;;2.90;0.80;;;;;;;12.67;54.20;95020.22;5031573;28;20182;-81
2021/05/21 07:16:52;;;;;;;5.97;0.90;;;;;;;12.83;52.74;95023.72;5048606;28;20221;-80
2021/05/21 07:19:18;;;;;;;1.30;0.80;;;;;;;12.82;50.42;95017.69;5014984;28;20198;-80
2021/05/21 07:21:45;;;;;;;2.63;0.60;;;;;;;13.02;49.59;95010.22;5035851;28;20217;-80
2021/05/21 07:24:10;;;;;;;4.23;0.80;;;;;;;13.13;47.09;95009.78;5031099;28;20646;-80
2021/05/21 07:26:36;;;;;;;4.10;0.90;;;;;;;13.10;47.00;95004.94;5032319;28;20216;-81
2021/05/21 07:29:02;;;;;;;0.80;0.70;;;;;;;13.25;47.37;95012.78;5032900;28;20653;-81
2021/05/21 07:31:28;;;;;;;5.57;1.03;;;;;;;13.30;47.93;95020.91;5034915;28;20194;-81
2021/05/21 07:33:54;;;;;;;1.73;0.90;;;;;;;13.22;47.85;95011.34;5036463;28;20179;-80
2021/05/21 07:36:20;;;;;;;1.70;0.63;;;;;;;13.19;48.38;95029.97;5052488;28;20209;-81
2021/05/21 07:38:45;;;;;;;1.93;1.00;;;;;;;13.22;47.93;95013.16;5052730;28;20174;-77
2021/05/21 07:41:11;;;;;;;2.63;0.70;;;;;;;13.27;47.86;95011.66;5015311;28;20190;-79
2021/05/21 07:43:37;;;;;;;3.00;0.70;;;;;;;13.36;48.32;95014.19;5012373;28;20286;-78
2021/05/21 07:46:02;;;;;;;1.37;1.17;;;;;;;13.27;47.81;95014.25;5017137;28;20742;-82
2021/05/21 07:48:28;;;;;;;1.53;0.80;;;;;;;13.21;48.28;95022.78;5051909;28;20262;-81
2021/05/21 07:50:53;;;;;;;1.13;0.50;;;;;;;13.20;48.53;95009.91;5051898;28;20265;-81
2021/05/21 07:53:19;;;;;;;3.23;0.70;;;;;;;13.28;47.56;95013.28;5050177;28;20226;-81
2021/05/21 07:55:44;;;;;;;2.47;1.10;;;;;;;13.17;48.28;95008.47;5035484;28;20174;-81
2021/05/21 07:58:12;;;;;;;0.50;0.50;;;;;;;13.26;48.20;94998.78;5034148;28;20175;-83
2021/05/21 08:00:37;;;;;;;2.47;0.70;;;;;;;13.29;48.46;94999.25;5066423;28;20190;-82
2021/05/21 08:03:03;;;;;;;1.37;0.60;;;;;;;13.27;47.94;94982.16;5020624;28;20210;-81
2021/05/21 08:05:28;;;;;;;2.00;0.90;;;;;;;13.15;47.50;94979.13;5018018;28;20586;-84
2021/05/21 08:07:53;;;;;;;2.37;0.80;;;;;;;13.27;48.78;94990.78;5012934;28;20432;-82
2021/05/21 08:10:19;;;;;;;4.50;0.70;;;;;;;13.19;48.08;94984.81;5011794;28;20183;-83
2021/05/21 08:12:44;;;;;;;1.77;0.67;;;;;;;13.10;47.66;94984.06;5051479;28;20581;-83
2021/05/21 08:15:10;;;;;;;2.40;0.70;;;;;;;13.07;48.06;94973.16;5050180;28;20179;-84
2021/05/21 08:17:36;;;;;;;2.90;1.30;;;;;;;13.02;48.59;94973.72;5015411;28;20778;-83
2021/05/21 08:20:03;;;;;;;2.90;0.60;;;;;;;12.98;48.27;94975.84;5018071;28;20190;-83
2021/05/21 08:22:29;;;;;;;2.07;0.63;;;;;;;12.97;48.19;94969.00;5049742;28;20584;-84
2021/05/21 08:24:54;;;;;;;2.53;1.00;;;;;;;13.10;48.50;94978.06;5033838;28;20182;-79
2021/05/21 08:27:20;;;;;;;3.27;0.70;;;;;;;13.12;48.43;94961.25;5008494;28;20183;-83
2021/05/21 08:29:45;;;;;;;2.80;0.60;;;;;;;13.14;47.90;94967.06;5012211;28;20706;-81
2021/05/21 08:32:10;;;;;;;4.83;0.87;;;;;;;13.07;48.07;94973.97;5046391;28;20234;-82
2021/05/21 08:34:36;;;;;;;3.87;0.70;;;;;;;13.12;47.02;94960.44;5067460;28;20190;-81
2021/05/21 08:37:01;;;;;;;2.13;0.70;;;;;;;13.15;47.33;94979.13;5048813;28;20190;-81
2021/05/21 08:39:27;;;;;;;0.80;0.50;;;;;;;13.18;47.93;94986.59;5033256;28;20197;-80
2021/05/21 08:41:54;;;;;;;2.43;1.10;;;;;;;13.09;47.64;94977.25;5041812;28;20210;-81
2021/05/21 08:44:20;;;;;;;2.87;0.70;;;;;;;13.15;46.78;94966.09;5033227;28;20193;-81
2021/05/21 08:46:45;;;;;;;1.83;0.60;;;;;;;13.15;47.40;94976.50;5016779;28;20694;-80
2021/05/21 08:49:11;;;;;;;1.17;0.70;;;;;;;13.15;46.98;94976.50;5033613;28;20237;-81
2021/05/21 08:51:36;;;;;;;1.40;0.63;;;;;;;13.24;48.07;94972.88;5049940;28;20196;-81
2021/05/21 08:54:02;;;;;;;2.10;1.13;;;;;;;13.11;47.42;94970.06;5032586;28;20201;-80
2021/05/21 08:56:28;;;;;;;3.03;0.93;;;;;;;13.12;47.59;94976.88;5035114;28;20301;-81
2021/05/21 08:58:53;;;;;;;1.30;0.60;;;;;;;13.15;46.91;94966.09;5050691;28;20186;-81
2021/05/21 09:01:19;;;;;;;2.50;0.67;;;;;;;13.12;47.85;94958.63;5033724;28;20187;-82
2021/05/21 09:03:46;;;;;;;1.87;0.70;;;;;;;13.22;46.97;94967.03;5050637;28;20221;-81
2021/05/21 09:06:21;;;;;;;1.17;0.60;;;;;;;13.23;47.32;94958.22;5028305;28;20614;-80
2021/05/21 09:08:50;;;;;;;1.67;0.70;;;;;;;13.31;47.60;94949.50;5049266;28;20182;-81
2021/05/21 09:11:26;;;;;;;1.57;0.77;;;;;;;13.26;47.43;94941.44;5033097;28;20178;-80
2021/05/21 09:13:56;;;;;;;1.80;0.70;;;;;;;13.21;47.13;94948.97;5032754;28;20677;-81
2021/05/21 09:16:23;;;;;;;1.37;0.60;;;;;;;13.18;47.16;94944.91;5048790;28;20209;-81
2021/05/21 09:19:20;;;;;;;1.80;0.63;;;;;;;13.24;47.12;94938.97;5033269;28;20190;-80
2021/05/21 09:21:50;;;;;;;3.90;0.70;;;;;;;13.11;47.24;94956.22;5028571;28;20630;-80
2021/05/21 09:24:17;;;;;;;0.83;0.73;;;;;;;13.18;47.46;94960.53;5032788;28;20642;-80
2021/05/21 09:26:44;;;;;;;1.23;0.60;;;;;;;13.26;46.95;94954.47;5015605;28;20206;-81
2021/05/21 09:29:15;;;;;;;2.30;0.60;;;;;;;13.28;47.02;94971.56;5049232;28;20215;-80
2021/05/21 09:31:47;;;;;;;2.47;0.80;;;;;;;13.35;47.03;94978.66;5032597;28;20202;-81
2021/05/21 09:34:14;;;;;;;2.17;0.90;;;;;;;13.45;47.73;94984.44;5049032;28;20201;-80
2021/05/21 09:36:41;;;;;;;2.00;0.60;;;;;;;13.45;47.75;94985.25;5014923;28;20187;-81
2021/05/21 09:39:09;;;;;;;1.73;0.60;;;;;;;13.44;48.89;94995.84;5008673;28;20185;-80
2021/05/21 09:41:50;;;;;;;2.50;0.70;;;;;;;13.44;48.44;94991.44;5032043;28;20183;-81
2021/05/21 09:44:16;;;;;;;3.03;0.77;;;;;;;13.54;48.33;95001.63;5015754;28;20180;-80
2021/05/21 09:46:43;;;;;;;1.27;0.63;;;;;;;13.38;48.91;95014.81;5032702;28;20202;-80
2021/05/21 09:49:34;;;;;;;1.40;0.60;;;;;;;13.17;49.63;95013.66;5047650;28;20262;-80
2021/05/21 09:52:02;;;;;;;2.20;0.60;;;;;;;13.25;50.00;95020.63;5012553;28;20210;-81
2021/05/21 09:54:47;;;;;;;1.57;0.70;;;;;;;13.32;50.19;95022.34;5049293;28;20197;-80
2021/05/21 09:57:12;;;;;;;2.03;0.70;;;;;;;13.10;50.38;95028.38;5016130;28;20214;-82
2021/05/21 09:59:42;;;;;;;0.93;0.70;;;;;;;13.40;50.59;95031.91;5046939;28;20475;-79
2021/05/21 10:02:30;;;;;;;1.60;0.57;;;;;;;13.26;49.82;95024.88;5033783;28;20608;-80
2021/05/21 10:04:57;;;;;;;1.53;0.70;;;;;;;13.39;49.87;95034.69;5038759;28;20195;-81
2021/05/21 10:07:23;;;;;;;0.80;0.80;;;;;;;13.43;49.12;95042.00;5009779;28;20186;-80
2021/05/21 10:09:49;;;;;;;1.40;1.10;;;;;;;13.72;49.52;95051.66;5010959;28;20186;-78
2021/05/21 10:12:15;;;;;;;1.67;0.70;;;;;;;13.60;50.52;95047.84;5030776;28;20203;-81
2021/05/21 10:14:59;;;;;;;2.00;1.30;;;;;;;13.71;50.34;95046.63;5031621;28;20266;-80
2021/05/21 10:17:25;;;;;;;1.50;1.00;;;;;;;13.76;50.33;95045.06;5017603;28;20178;-79
2021/05/21 10:19:53;;;;;;;0.73;0.50;;;;;;;13.81;50.11;95044.53;5046356;28;20191;-79
2021/05/21 10:22:31;;;;;;;2.40;0.70;;;;;;;13.62;50.46;95034.63;5064146;28;20198;-80
2021/05/21 10:25:22;;;;;;;2.17;0.70;;;;;;;13.50;50.51;95036.84;5031444;28;20182;-81
2021/05/21 10:27:50;;;;;;;2.67;1.43;;;;;;;13.50;50.33;95042.06;5032713;28;20194;-80
2021/05/21 10:30:16;;;;;;;1.47;0.70;;;;;;;13.70;49.87;95037.97;5063867;28;20253;-80
2021/05/21 10:32:41;;;;;;;1.67;0.73;;;;;;;13.64;49.65;95041.28;5014961;28;20690;-81
2021/05/21 10:35:15;;;;;;;0.90;0.70;;;;;;;13.77;50.06;95046.69;5064408;28;20241;-81
2021/05/21 10:37:41;;;;;;;1.37;0.53;;;;;;;13.67;49.40;95046.16;5015019;28;20214;-81
2021/05/21 10:40:10;;;;;;;1.37;0.90;;;;;;;13.80;49.43;95054.19;5014119;28;20179;-78
2021/05/21 10:42:54;;;;;;;1.50;0.70;;;;;;;13.73;49.58;95048.03;5028398;28;20688;-80
2021/05/21 10:45:24;;;;;;;1.50;0.73;;;;;;;13.90;49.45;95056.50;5027832;28;20689;-76
2021/05/21 10:48:04;;;;;;;0.97;0.50;;;;;;;13.71;49.89;95055.25;5031935;28;20558;-78
2021/05/21 10:50:39;;;;;;;0.90;0.60;;;;;;;13.93;49.69;95050.94;5046189;28;20174;-78
2021/05/21 10:53:08;;;;;;;3.67;0.73;;;;;;;13.67;49.73;95058.38;5057812;28;20210;-78
2021/05/21 10:55:51;;;;;;;1.93;1.20;;;;;;;13.45;50.09;95049.63;5014164;28;20221;-78
2021/05/21 10:58:44;;;;;;;1.33;0.50;;;;;;;13.59;49.72;95056.66;5028635;28;20183;-78
2021/05/21 11:01:20;;;;;;;0.93;0.53;;;;;;;13.51;50.04;95056.72;5029718;28;20186;-78
2021/05/21 11:03:55;;;;;;;0.57;0.47;;;;;;;13.38;50.38;95059.16;5029089;28;20206;-76
2021/05/21 11:06:21;;;;;;;1.63;0.80;;;;;;;13.49;51.16;95063.94;5029863;28;20256;-76
2021/05/21 11:08:47;;;;;;;1.07;0.63;;;;;;;13.28;51.83;95062.81;5002475;28;20182;-77
2021/05/21 11:11:13;;;;;;;2.60;0.83;;;;;;;13.16;53.23;95063.34;5023855;28;20278;-77
2021/05/21 11:13:39;;;;;;;0.47;0.47;;;;;;;13.21;50.30;95061.06;5006817;28;20685;-76
2021/05/21 11:16:11;;;;;;;0.90;0.67;;;;;;;13.32;49.27;95061.47;5025389;28;20204;-76
2021/05/21 11:18:46;;;;;;;0.73;0.67;;;;;;;13.52;50.67;95071.41;5053804;28;20269;-78
2021/05/21 11:21:15;;;;;;;2.40;0.80;;;;;;;13.60;50.27;95060.88;5005152;28;20174;-78
2021/05/21 11:23:41;;;;;;;2.20;0.80;;;;;;;13.82;49.86;95057.41;5028780;28;20554;-77
2021/05/21 11:26:12;;;;;;;0.90;0.70;;;;;;;13.73;48.12;95068.13;5029252;28;20289;-78
2021/05/21 11:28:42;;;;;;;0.67;0.63;;;;;;;13.92;47.60;95064.16;5016690;28;20178;-78
2021/05/21 11:31:11;;;;;;;0.63;0.63;;;;;;;13.87;47.32;95064.72;5047345;28;20194;-77
2021/05/21 11:33:36;;;;;;;2.50;0.70;;;;;;;14.25;47.30;95062.81;5014103;28;20209;-77
2021/05/21 11:36:07;;;;;;;0.73;0.57;;;;;;;14.50;46.94;95068.56;5029831;28;20182;-77
2021/05/21 11:38:33;;;;;;;0.83;0.77;;;;;;;14.76;45.31;95065.44;5030110;28;20182;-77